Pagina principale
METAR-TAF:

METAR-TAF

Aeroporti :

Aeroporto di Lecce-Galatina

Lecce, Italia

latitudine: 40-14N, longitudine: 018-09E, altezza: 48 m

Osservazione

Il bollettino è stato emesso 25 minuti fa, alle 11:55 UTC
Vento 3 kt da direzioni variabili
Temperature 8°C
Umidità 53%
Pressione 1030 hPa
Visibilità 10 km o più
Nubi sparse ad un'altezza di 3000 ft

METAR: LIBN 091155Z VRB03KT 9999 SCT030 08/M01 Q1030 RMK OVC SCT080 BKN100 VIS MIN 9999 WIND THR14 VRB03KT WIND THR32 VRB02KT BLU

Ora: 13:20 (12:20 UTC)

Previsione

Il bollettino è stato emesso 1 ora e 20 minuti fa, alle 11:00 UTC
Previsione valida dal 09 alle 12 UTC al 09 alle 21 UTC
Vento 7 kt da nord-est
Visibilità 10 km o più
Nubi sparse ad un'altezza di 3000 ft

TAF: LIBN 091100Z 0912/0921 04007KT 9999 SCT030

Osservazioni e previsioni meteorologiche di più di 4000 aeroporti (messaggi METAR e TAF).

Le stazioni disponibili sono rappresentate dai dischi gialli e rossi sulla carta.

Puntare il mouse per vedere il nome della stazione.

Clicca sopra per visualizzare le osservazioni e previsioni meteorologiche.

Per cambiare la mappa : fare clic sui pulsanti verdi con una croce nera per ingrandire, il pulsante verde con un trattino per diminuire, o sulla freccia verde per le mappe adiacenti.


METAR-TAF: